Terminal Aerodrome Forecast
Issued by NWS

Home | Current Version | Previous Version | Text Only | Print | Product List | Glossary On
Versions: 1 2 3 4 5 6 7 8 9 10 11 12 13 14 15 16 17 18 19
000
FTUS43 KDVN 040520
TAFBRL
TAF
KBRL 040520Z 0406/0506 20007KT P6SM SCT120 BKN200
     FM040730 21006KT 6SM -RA BR VCTS SCT050 BKN070CB
      TEMPO 0408/0411 3SM TSRA BR BKN025CB OVC070
     FM041100 24006KT P6SM VCSH SCT040 BKN090
     FM042300 23005KT P6SM VCTS BKN050CB OVC110 PROB30 0500/0506 2SM
      TSRA BKN020CB OVC040=

USA.gov is the U.S. government's official web portal to all federal, state and local government web resources and services.